Time;durP1;ratioP1;P1;durP2;ratioP2;P2;SDS_P1;SDS_P2;PMS_P1;PMS_P2;Temp;Humidity;BMP_temperature;BMP_pressure;BME280_temperature;BME280_humidity;BME280_pressure;Samples;Min_cycle;Max_cycle;Signal;HPM_P1;HPM_P2
2021/12/27 00:00:32;;;;;;;20.63;15.00;;;2.00;99.90;;;;;;5070318;28;20197;-54
2021/12/27 00:03:00;;;;;;;18.70;13.33;;;2.00;99.90;;;;;;5071803;28;20651;-48
2021/12/27 00:05:27;;;;;;;17.10;12.57;;;1.90;99.90;;;;;;5071245;28;20643;-50
2021/12/27 00:07:54;;;;;;;17.23;12.57;;;1.90;99.90;;;;;;5071613;28;20498;-55
2021/12/27 00:10:20;;;;;;;16.53;12.53;;;1.90;99.90;;;;;;5071651;28;20520;-51
2021/12/27 00:12:47;;;;;;;16.83;12.93;;;;;;;;;;5071374;28;20445;-52
2021/12/27 00:15:13;;;;;;;19.17;14.20;;;2.10;99.90;;;;;;5071371;28;20411;-52
2021/12/27 00:17:40;;;;;;;19.77;14.13;;;;;;;;;;5071333;28;20408;-51
2021/12/27 00:20:10;;;;;;;20.70;13.27;;;1.90;99.90;;;;;;5071547;28;20429;-53
2021/12/27 00:22:36;;;;;;;17.03;12.50;;;1.70;99.90;;;;;;5071390;28;20413;-53
2021/12/27 00:25:06;;;;;;;18.67;13.83;;;1.50;99.90;;;;;;5071303;28;20408;-57
2021/12/27 00:27:32;;;;;;;19.90;14.40;;;1.50;99.90;;;;;;5071291;28;20181;-54
2021/12/27 00:29:57;;;;;;;19.60;15.07;;;1.50;99.90;;;;;;5056307;28;20924;-51
2021/12/27 00:32:23;;;;;;;20.13;13.73;;;1.50;99.90;;;;;;5051309;28;20591;-55
2021/12/27 00:34:49;;;;;;;18.53;13.60;;;1.60;99.90;;;;;;5050805;28;20214;-54
2021/12/27 00:37:14;;;;;;;19.30;13.97;;;1.80;99.90;;;;;;5051392;28;20237;-55
2021/12/27 00:39:40;;;;;;;19.67;14.03;;;1.60;99.90;;;;;;5051101;28;20191;-50
2021/12/27 00:42:06;;;;;;;21.03;14.53;;;1.50;99.90;;;;;;5051443;28;20179;-54
2021/12/27 00:44:33;;;;;;;21.57;14.23;;;1.40;99.90;;;;;;5050838;28;20679;-54
2021/12/27 00:46:58;;;;;;;18.47;14.13;;;1.40;99.90;;;;;;5051296;28;20421;-53
2021/12/27 00:49:25;;;;;;;20.77;15.03;;;1.40;99.90;;;;;;5050866;28;20418;-55
2021/12/27 00:51:50;;;;;;;19.73;14.00;;;1.50;99.90;;;;;;5053284;28;20175;-53
2021/12/27 00:54:16;;;;;;;26.40;16.73;;;1.60;99.90;;;;;;5054800;28;20994;-54
2021/12/27 00:56:42;;;;;;;22.43;15.77;;;1.70;99.90;;;;;;5054857;28;20662;-51
2021/12/27 00:59:08;;;;;;;23.40;15.60;;;1.60;99.90;;;;;;5055011;28;20175;-54
2021/12/27 01:01:33;;;;;;;19.30;14.50;;;1.50;99.90;;;;;;5054697;28;20406;-56
2021/12/27 01:03:59;;;;;;;21.30;15.13;;;1.60;99.90;;;;;;5054586;28;20301;-52
2021/12/27 01:06:25;;;;;;;21.17;15.40;;;1.70;99.90;;;;;;5053176;28;20175;-55
2021/12/27 01:08:52;;;;;;;22.33;15.30;;;1.70;99.90;;;;;;5054844;28;20552;-58
2021/12/27 01:11:27;;;;;;;22.67;16.23;;;1.80;99.90;;;;;;5054453;28;20514;-56
2021/12/27 01:14:11;;;;;;;21.80;16.37;;;1.80;99.90;;;;;;5054564;28;20452;-54
2021/12/27 01:16:38;;;;;;;23.53;16.23;;;1.90;99.90;;;;;;5054404;28;20840;-56
2021/12/27 01:19:05;;;;;;;22.87;16.80;;;1.90;99.90;;;;;;5054683;28;20817;-57
2021/12/27 01:21:31;;;;;;;20.50;14.93;;;1.90;99.90;;;;;;5053544;28;20845;-55
2021/12/27 01:23:57;;;;;;;20.50;15.37;;;1.70;99.90;;;;;;5054024;28;20421;-55
2021/12/27 01:26:25;;;;;;;21.07;15.20;;;1.70;99.90;;;;;;5053192;28;20440;-57
2021/12/27 01:28:51;;;;;;;21.33;15.40;;;1.70;99.90;;;;;;5054283;28;20644;-50
2021/12/27 01:31:17;;;;;;;21.63;15.37;;;1.60;99.90;;;;;;5054300;28;20815;-54
2021/12/27 01:33:45;;;;;;;20.87;15.37;;;1.60;99.90;;;;;;5054057;28;20543;-53
2021/12/27 01:36:12;;;;;;;21.73;15.63;;;1.60;99.90;;;;;;5052725;28;20171;-51
2021/12/27 01:38:39;;;;;;;25.07;17.83;;;1.50;99.90;;;;;;5053398;28;20492;-49
2021/12/27 01:41:09;;;;;;;23.83;17.87;;;1.60;99.90;;;;;;5053743;28;20956;-52
2021/12/27 01:43:37;;;;;;;25.07;17.90;;;1.60;99.90;;;;;;5054037;28;20973;-49
2021/12/27 01:46:16;;;;;;;29.53;18.37;;;1.60;99.90;;;;;;5053608;28;20414;-49
2021/12/27 01:48:45;;;;;;;25.37;18.40;;;1.60;99.90;;;;;;5054219;28;20420;-49
2021/12/27 01:51:13;;;;;;;22.37;16.37;;;1.50;99.90;;;;;;5053807;28;20483;-50
2021/12/27 01:53:43;;;;;;;23.43;16.70;;;1.50;99.90;;;;;;5053941;28;20453;-51
2021/12/27 01:56:11;;;;;;;27.47;18.83;;;1.50;99.90;;;;;;5053282;28;20414;-49
2021/12/27 01:58:37;;;;;;;25.63;17.83;;;1.50;99.90;;;;;;5053906;28;20409;-51
2021/12/27 02:01:06;;;;;;;27.63;17.97;;;1.40;99.90;;;;;;5053562;28;20418;-53
2021/12/27 02:03:32;;;;;;;26.37;18.27;;;1.20;99.90;;;;;;5053368;28;20501;-51
2021/12/27 02:06:00;;;;;;;24.17;18.30;;;1.10;99.90;;;;;;5053175;28;20853;-49
2021/12/27 02:08:26;;;;;;;26.30;18.10;;;1.10;99.90;;;;;;5053640;28;20405;-49
2021/12/27 02:10:52;;;;;;;25.70;18.00;;;1.10;99.90;;;;;;5053494;28;20873;-51
2021/12/27 02:13:19;;;;;;;22.90;17.30;;;1.10;99.90;;;;;;5053477;28;20518;-49
2021/12/27 02:15:45;;;;;;;26.73;18.37;;;0.90;99.90;;;;;;5053351;28;20418;-48
2021/12/27 02:18:11;;;;;;;24.90;17.43;;;1.00;99.90;;;;;;5053322;28;20413;-50
2021/12/27 02:20:38;;;;;;;27.07;18.87;;;1.00;99.90;;;;;;5053438;28;20191;-49
2021/12/27 02:23:10;;;;;;;28.90;19.77;;;1.00;99.90;;;;;;5053018;28;20187;-49
2021/12/27 02:25:36;;;;;;;28.27;19.50;;;1.10;99.90;;;;;;5053143;28;20960;-49
2021/12/27 02:28:06;;;;;;;28.70;20.53;;;1.10;99.90;;;;;;5052957;28;20493;-49
2021/12/27 02:30:33;;;;;;;31.40;20.80;;;1.10;99.90;;;;;;5053049;28;20241;-49
2021/12/27 02:33:04;;;;;;;28.90;20.13;;;1.10;99.90;;;;;;5052949;28;20457;-49
2021/12/27 02:35:38;;;;;;;27.27;18.23;;;1.20;99.90;;;;;;5052911;28;20409;-48
2021/12/27 02:38:04;;;;;;;27.83;19.23;;;1.30;99.90;;;;;;5052941;28;20424;-52
2021/12/27 02:40:31;;;;;;;30.77;21.30;;;1.40;99.90;;;;;;5052974;28;20940;-49
2021/12/27 02:43:04;;;;;;;26.60;19.07;;;1.40;99.90;;;;;;5053028;28;20963;-51
2021/12/27 02:45:32;;;;;;;27.47;19.60;;;1.50;99.90;;;;;;5052477;28;20402;-49
2021/12/27 02:47:59;;;;;;;27.23;19.43;;;1.50;99.90;;;;;;5052827;28;20418;-50
2021/12/27 02:50:26;;;;;;;29.33;20.03;;;1.50;99.90;;;;;;5052571;28;20495;-49
2021/12/27 02:52:52;;;;;;;27.93;19.07;;;1.40;99.90;;;;;;5052796;28;20464;-53
2021/12/27 02:55:18;;;;;;;28.00;19.87;;;1.30;99.90;;;;;;5052269;28;20417;-49
2021/12/27 02:57:45;;;;;;;27.03;19.50;;;1.10;99.90;;;;;;5052695;28;20547;-52
2021/12/27 03:00:15;;;;;;;28.80;20.67;;;1.00;99.90;;;;;;5052418;28;20584;-49
2021/12/27 03:02:45;;;;;;;28.33;20.27;;;0.90;99.90;;;;;;5052627;28;20911;-49
2021/12/27 03:05:14;;;;;;;30.77;21.03;;;1.00;99.90;;;;;;5052186;28;20405;-51
2021/12/27 03:07:40;;;;;;;28.70;19.67;;;1.20;99.90;;;;;;5052502;28;20779;-50
2021/12/27 03:10:08;;;;;;;27.17;19.77;;;1.30;99.90;;;;;;5052493;28;20517;-49
2021/12/27 03:12:34;;;;;;;26.53;19.13;;;1.50;99.90;;;;;;5052002;28;20469;-49
2021/12/27 03:14:59;;;;;;;27.40;19.17;;;1.60;99.90;;;;;;5051322;28;20405;-49
2021/12/27 03:17:25;;;;;;;26.47;19.57;;;1.70;99.90;;;;;;5052094;28;20173;-52
2021/12/27 03:19:50;;;;;;;28.23;19.77;;;1.70;99.90;;;;;;5052333;28;20244;-48
2021/12/27 03:22:16;;;;;;;26.90;18.60;;;1.80;99.90;;;;;;5052087;28;20183;-49
2021/12/27 03:24:41;;;;;;;28.47;18.97;;;1.80;99.90;;;;;;5051968;28;20236;-55
2021/12/27 03:27:07;;;;;;;23.47;17.17;;;1.70;99.90;;;;;;5051880;28;20178;-48
2021/12/27 03:32:07;;;;;;;28.20;18.43;;;2.60;99.90;;;;;;5128513;22;20235;-59
2021/12/27 03:34:33;;;;;;;26.10;18.37;;;1.70;99.90;;;;;;5089896;28;20933;-59
2021/12/27 03:36:59;;;;;;;23.80;17.20;;;1.60;99.90;;;;;;5092203;28;20162;-59
2021/12/27 03:39:25;;;;;;;26.43;19.13;;;1.60;99.90;;;;;;5092064;28;20404;-58
2021/12/27 03:41:50;;;;;;;24.83;18.13;;;1.60;99.90;;;;;;5092200;28;20182;-55
2021/12/27 03:44:16;;;;;;;25.83;18.10;;;1.60;99.90;;;;;;5091968;28;20181;-59
2021/12/27 03:46:42;;;;;;;25.07;17.93;;;1.60;99.90;;;;;;5091945;28;20248;-59
2021/12/27 03:49:07;;;;;;;26.17;19.30;;;1.50;99.90;;;;;;5091959;28;20242;-59
2021/12/27 03:51:33;;;;;;;25.10;17.33;;;1.50;99.90;;;;;;5091933;28;20194;-58
2021/12/27 03:53:59;;;;;;;25.67;17.93;;;1.60;99.90;;;;;;5091813;28;20209;-60
2021/12/27 03:56:24;;;;;;;29.33;19.37;;;1.70;99.90;;;;;;5091552;28;20211;-62
2021/12/27 04:01:21;;;;;;;25.87;18.30;;;1.60;99.90;;;;;;5091640;28;20554;-62
2021/12/27 04:03:49;;;;;;;24.17;18.07;;;1.60;99.90;;;;;;5091925;28;20494;-62
2021/12/27 04:06:17;;;;;;;26.37;18.10;;;1.70;99.90;;;;;;5091227;28;20414;-62
2021/12/27 04:08:43;;;;;;;30.37;19.10;;;1.80;99.90;;;;;;5091980;28;20411;-59
2021/12/27 04:11:09;;;;;;;27.30;18.37;;;1.90;99.90;;;;;;5091567;28;20432;-60
2021/12/27 04:13:35;;;;;;;24.87;18.57;;;1.90;99.90;;;;;;5091560;28;20505;-63
2021/12/27 04:16:01;;;;;;;26.00;19.60;;;1.90;99.90;;;;;;5091437;28;20215;-62
2021/12/27 04:18:27;;;;;;;26.57;18.90;;;1.90;99.90;;;;;;5091456;28;20419;-62
2021/12/27 04:20:53;;;;;;;25.47;19.10;;;1.90;99.90;;;;;;5091772;28;20190;-59
2021/12/27 04:23:18;;;;;;;24.10;18.17;;;2.10;99.90;;;;;;5091320;28;20419;-61
2021/12/27 04:25:45;;;;;;;27.43;19.40;;;2.30;99.90;;;;;;5093434;28;20170;-63
2021/12/27 04:28:11;;;;;;;26.27;18.47;;;2.40;99.90;;;;;;5095354;28;20186;-60
2021/12/27 04:30:38;;;;;;;27.10;19.13;;;2.50;99.90;;;;;;5095719;28;20462;-62
2021/12/27 04:33:03;;;;;;;27.50;19.50;;;2.50;99.90;;;;;;5095533;28;20539;-61
2021/12/27 04:35:30;;;;;;;28.13;19.33;;;2.50;99.90;;;;;;5095490;28;20408;-61
2021/12/27 04:37:56;;;;;;;26.17;19.10;;;2.60;99.90;;;;;;5095734;28;20185;-60
2021/12/27 04:40:23;;;;;;;26.77;19.30;;;2.60;99.90;;;;;;5095410;28;20424;-59
2021/12/27 04:42:54;;;;;;;27.57;19.97;;;2.70;99.90;;;;;;5095548;28;20411;-62
2021/12/27 04:45:20;;;;;;;28.77;19.67;;;2.80;99.90;;;;;;5094946;28;20408;-54
2021/12/27 04:47:45;;;;;;;26.03;18.97;;;2.80;99.90;;;;;;5095439;28;20836;-58
2021/12/27 04:50:13;;;;;;;28.13;19.60;;;2.90;99.90;;;;;;5095086;28;20700;-62
2021/12/27 04:52:40;;;;;;;25.10;18.00;;;2.80;99.90;;;;;;5095185;28;20198;-58
2021/12/27 04:55:06;;;;;;;27.27;19.03;;;2.70;99.90;;;;;;5094962;28;20264;-62
2021/12/27 04:57:32;;;;;;;27.67;20.07;;;2.70;99.90;;;;;;5094922;28;20665;-59
2021/12/27 04:59:58;;;;;;;36.87;26.50;;;2.60;99.90;;;;;;5095207;28;20185;-56
2021/12/27 05:02:23;;;;;;;27.00;20.10;;;2.60;99.90;;;;;;5094647;28;20170;-60
2021/12/27 05:04:49;;;;;;;28.47;21.37;;;2.60;99.90;;;;;;5094692;28;20162;-60
2021/12/27 05:07:15;;;;;;;29.77;20.40;;;2.60;99.90;;;;;;5094369;28;20286;-59
2021/12/27 05:09:40;;;;;;;32.27;21.67;;;2.60;99.90;;;;;;5095072;28;20166;-60
2021/12/27 05:12:06;;;;;;;28.57;19.70;;;2.60;99.90;;;;;;5094621;28;20217;-57
2021/12/27 05:14:32;;;;;;;31.03;21.40;;;2.50;99.90;;;;;;5094588;28;20201;-61
2021/12/27 05:16:58;;;;;;;29.50;20.13;;;2.50;99.90;;;;;;5094882;28;20223;-58
2021/12/27 05:19:23;;;;;;;28.80;20.13;;;2.50;99.90;;;;;;5094678;28;20542;-60
2021/12/27 05:21:49;;;;;;;28.63;20.43;;;2.60;99.90;;;;;;5094743;28;20202;-62
2021/12/27 05:24:15;;;;;;;27.70;20.23;;;2.70;99.90;;;;;;5094431;28;20195;-59
2021/12/27 05:26:40;;;;;;;28.87;20.30;;;2.70;99.90;;;;;;5094710;28;20178;-60
2021/12/27 05:29:06;;;;;;;27.00;20.83;;;2.70;99.90;;;;;;5094419;28;20273;-60
2021/12/27 05:31:31;;;;;;;29.57;21.07;;;2.70;99.90;;;;;;5094432;28;20290;-60
2021/12/27 05:33:57;;;;;;;29.77;20.50;;;2.70;99.90;;;;;;5093967;28;20238;-54
2021/12/27 05:36:23;;;;;;;27.07;19.80;;;2.80;99.90;;;;;;5093660;28;20170;-60
2021/12/27 05:38:48;;;;;;;29.87;20.10;;;2.80;99.90;;;;;;5094038;28;20173;-62
2021/12/27 05:41:14;;;;;;;28.03;20.43;;;2.70;99.90;;;;;;5093876;28;20182;-60
2021/12/27 05:43:39;;;;;;;25.87;19.33;;;2.70;99.90;;;;;;5094055;28;20676;-57
2021/12/27 05:46:05;;;;;;;30.73;20.93;;;2.80;99.90;;;;;;5092318;28;20177;-59
2021/12/27 05:48:31;;;;;;;30.20;20.07;;;2.90;99.90;;;;;;5094363;28;20184;-62
2021/12/27 05:50:56;;;;;;;27.40;20.27;;;2.90;99.90;;;;;;5093610;28;20189;-62
2021/12/27 05:53:22;;;;;;;26.37;20.27;;;2.90;99.90;;;;;;5094005;28;20226;-57
2021/12/27 05:55:48;;;;;;;30.33;20.53;;;2.90;99.90;;;;;;5093425;28;20167;-59
2021/12/27 05:58:14;;;;;;;28.23;20.03;;;3.00;99.90;;;;;;5093551;28;20166;-60
2021/12/27 06:00:39;;;;;;;28.30;19.83;;;3.00;99.90;;;;;;5093715;28;20225;-58
2021/12/27 06:03:06;;;;;;;28.00;20.17;;;3.00;99.90;;;;;;5093391;28;20174;-60
2021/12/27 06:05:31;;;;;;;32.70;20.87;;;3.00;99.90;;;;;;5093670;28;20177;-60
2021/12/27 06:07:57;;;;;;;28.97;19.63;;;3.00;99.90;;;;;;5093286;28;20239;-61
2021/12/27 06:10:22;;;;;;;28.87;20.03;;;3.00;99.90;;;;;;5093521;28;20194;-61
2021/12/27 06:12:49;;;;;;;27.63;19.67;;;2.90;99.90;;;;;;5093304;28;20205;-60
2021/12/27 06:15:15;;;;;;;29.93;20.10;;;2.90;99.90;;;;;;5093499;28;20362;-59
2021/12/27 06:17:42;;;;;;;30.57;20.63;;;2.90;99.90;;;;;;5093230;28;20415;-60
2021/12/27 06:20:10;;;;;;;30.63;21.03;;;2.90;99.90;;;;;;5093457;28;20196;-60
2021/12/27 06:22:40;;;;;;;28.63;20.17;;;2.90;99.90;;;;;;5093538;28;20795;-61
2021/12/27 06:25:06;;;;;;;30.90;21.30;;;3.00;99.90;;;;;;5092908;28;20538;-60
2021/12/27 06:27:32;;;;;;;33.20;21.70;;;3.00;99.90;;;;;;5093293;28;20718;-60
2021/12/27 06:30:04;;;;;;;33.37;21.87;;;2.90;99.90;;;;;;5092946;28;20180;-59
2021/12/27 06:32:29;;;;;;;32.00;20.97;;;2.90;99.90;;;;;;5091375;28;20189;-59
2021/12/27 06:34:55;;;;;;;33.77;22.20;;;2.90;99.90;;;;;;5084033;28;20187;-58
2021/12/27 06:37:20;;;;;;;33.07;22.67;;;2.80;99.90;;;;;;5077539;28;20647;-58
2021/12/27 06:39:46;;;;;;;36.00;23.67;;;2.50;99.90;;;;;;5092762;28;20541;-62
2021/12/27 06:42:11;;;;;;;34.57;21.87;;;2.70;99.90;;;;;;5093048;28;20221;-61
2021/12/27 06:44:37;;;;;;;35.47;23.47;;;2.70;99.90;;;;;;5092388;28;20530;-59
2021/12/27 06:47:03;;;;;;;35.27;22.80;;;2.70;99.90;;;;;;5092348;28;20546;-61
2021/12/27 06:49:29;;;;;;;36.03;24.03;;;2.90;99.90;;;;;;5091247;28;20189;-60
2021/12/27 06:51:54;;;;;;;37.10;24.80;;;2.80;99.90;;;;;;5084915;28;20202;-60
2021/12/27 06:54:20;;;;;;;35.90;25.30;;;2.80;99.90;;;;;;5072344;28;20198;-59
2021/12/27 06:56:46;;;;;;;33.20;22.30;;;2.70;99.90;;;;;;5085741;28;20177;-60
2021/12/27 06:59:13;;;;;;;32.97;22.73;;;2.50;99.90;;;;;;5092510;28;20672;-60
2021/12/27 07:01:38;;;;;;;37.40;25.70;;;2.60;99.90;;;;;;5092775;28;20181;-59
2021/12/27 07:04:04;;;;;;;32.27;22.63;;;2.60;99.90;;;;;;5091918;28;20457;-61
2021/12/27 07:06:29;;;;;;;35.10;22.70;;;2.50;99.90;;;;;;5091733;28;20733;-61
2021/12/27 07:08:55;;;;;;;32.40;21.53;;;2.70;99.90;;;;;;5082255;28;20272;-58
2021/12/27 07:11:20;;;;;;;32.90;21.60;;;2.70;99.90;;;;;;5092025;28;20232;-60
2021/12/27 07:13:46;;;;;;;34.70;22.33;;;2.70;99.90;;;;;;5092279;28;20205;-59
2021/12/27 07:16:12;;;;;;;36.30;24.13;;;2.70;99.90;;;;;;5091718;28;20515;-58
2021/12/27 07:18:37;;;;;;;34.27;21.90;;;2.70;99.90;;;;;;5092598;28;20170;-58
2021/12/27 07:21:03;;;;;;;35.83;22.73;;;2.80;99.90;;;;;;5092254;28;20197;-55
2021/12/27 07:23:28;;;;;;;36.23;23.73;;;2.80;99.90;;;;;;5092601;28;20174;-57
2021/12/27 07:25:54;;;;;;;38.03;23.90;;;2.70;99.90;;;;;;5091989;28;20181;-54
2021/12/27 07:28:20;;;;;;;37.10;22.53;;;2.70;99.90;;;;;;5092541;28;20185;-56
2021/12/27 07:30:46;;;;;;;37.03;23.60;;;2.80;99.90;;;;;;5091996;28;20273;-55
2021/12/27 07:33:11;;;;;;;36.97;23.13;;;2.80;99.90;;;;;;5092344;28;20723;-57
2021/12/27 07:35:37;;;;;;;38.63;24.00;;;2.90;99.90;;;;;;5091847;28;20181;-57
2021/12/27 07:38:03;;;;;;;36.90;22.73;;;2.70;99.90;;;;;;5092242;28;20184;-55
2021/12/27 07:40:29;;;;;;;37.30;23.43;;;2.50;99.90;;;;;;5092252;28;20201;-56
2021/12/27 07:42:54;;;;;;;36.97;22.63;;;2.50;99.90;;;;;;5087880;28;20189;-56
2021/12/27 07:45:20;;;;;;;40.17;25.30;;;2.40;99.90;;;;;;5087188;28;20205;-57
2021/12/27 07:47:46;;;;;;;34.60;23.67;;;2.50;99.90;;;;;;5080453;28;20186;-59
2021/12/27 07:50:11;;;;;;;37.97;23.80;;;2.50;99.90;;;;;;5080826;28;20686;-57
2021/12/27 07:52:37;;;;;;;37.17;23.53;;;2.50;99.90;;;;;;5083185;28;20184;-56
2021/12/27 07:55:04;;;;;;;36.83;23.00;;;2.50;99.90;;;;;;5090549;28;20260;-57
2021/12/27 07:57:30;;;;;;;32.07;21.53;;;2.70;99.90;;;;;;5091842;28;20166;-60
2021/12/27 07:59:56;;;;;;;35.23;22.40;;;2.80;99.90;;;;;;5093680;28;20241;-57
2021/12/27 08:02:21;;;;;;;36.43;23.80;;;3.00;99.90;;;;;;5092681;28;20201;-58
2021/12/27 08:04:47;;;;;;;35.30;23.03;;;3.10;99.90;;;;;;5094286;28;20199;-56
2021/12/27 08:07:13;;;;;;;34.37;22.23;;;3.20;99.90;;;;;;5094144;28;20281;-56
2021/12/27 08:09:39;;;;;;;35.37;22.67;;;3.20;99.90;;;;;;5095500;28;20269;-59
2021/12/27 08:12:05;;;;;;;37.17;24.23;;;3.30;99.90;;;;;;5091673;28;20206;-55
2021/12/27 08:14:31;;;;;;;34.43;22.67;;;3.20;99.90;;;;;;5106261;28;20606;-54
2021/12/27 08:16:57;;;;;;;35.73;23.20;;;3.10;99.90;;;;;;5095051;28;20256;-60
2021/12/27 08:19:23;;;;;;;35.60;22.87;;;3.10;99.90;;;;;;5096983;28;20182;-55
2021/12/27 08:21:49;;;;;;;38.00;23.77;;;3.10;99.90;;;;;;5098710;28;20296;-57
2021/12/27 08:24:14;;;;;;;39.27;24.40;;;3.10;99.90;;;;;;5095925;28;20781;-58
2021/12/27 08:26:40;;;;;;;36.70;24.37;;;3.00;99.90;;;;;;5089824;28;20178;-57
2021/12/27 08:29:09;;;;;;;36.20;23.57;;;2.90;99.90;;;;;;5097450;28;20716;-57
2021/12/27 08:31:34;;;;;;;33.83;22.33;;;2.90;99.90;;;;;;5111053;28;20304;-58
2021/12/27 08:34:00;;;;;;;36.10;22.90;;;2.90;99.90;;;;;;5111573;28;20342;-54
2021/12/27 08:36:25;;;;;;;32.33;21.67;;;2.90;99.90;;;;;;5111611;28;20188;-59
2021/12/27 08:38:51;;;;;;;35.50;22.53;;;3.20;99.90;;;;;;5112638;28;20201;-60
2021/12/27 08:41:18;;;;;;;33.20;21.30;;;3.40;99.90;;;;;;5108965;28;20825;-57
2021/12/27 08:43:45;;;;;;;34.70;21.67;;;3.60;99.90;;;;;;5088378;28;20173;-56
2021/12/27 08:46:11;;;;;;;34.50;21.50;;;3.80;99.90;;;;;;5089746;28;20184;-59
2021/12/27 08:48:37;;;;;;;34.77;22.30;;;3.90;99.90;;;;;;5090914;28;20223;-58
2021/12/27 08:51:03;;;;;;;37.17;20.53;;;4.10;99.90;;;;;;5091254;28;20553;-58
2021/12/27 08:53:29;;;;;;;30.97;20.40;;;4.40;99.90;;;;;;5091183;28;20278;-59
2021/12/27 08:55:55;;;;;;;31.37;20.80;;;4.80;99.90;;;;;;5091085;28;20258;-55
2021/12/27 08:58:21;;;;;;;32.83;20.40;;;5.30;99.90;;;;;;5094084;28;20260;-59
2021/12/27 09:00:47;;;;;;;30.67;20.33;;;5.50;99.90;;;;;;5106345;28;20186;-59
2021/12/27 09:03:13;;;;;;;29.27;19.47;;;5.80;99.90;;;;;;5074827;28;20232;-59
2021/12/27 09:05:40;;;;;;;29.90;19.93;;;5.90;99.90;;;;;;5099423;28;20177;-59
2021/12/27 09:08:06;;;;;;;28.87;19.53;;;5.80;99.90;;;;;;5091376;28;20188;-57
2021/12/27 09:10:32;;;;;;;31.00;20.57;;;5.80;99.90;;;;;;5097754;28;20624;-56
2021/12/27 09:13:00;;;;;;;27.37;18.43;;;5.90;99.90;;;;;;5114118;28;20603;-54
2021/12/27 09:15:26;;;;;;;31.50;20.83;;;6.10;99.90;;;;;;5115018;28;20169;-61
2021/12/27 09:17:52;;;;;;;31.70;21.47;;;6.20;99.90;;;;;;5115246;28;20185;-61
2021/12/27 09:20:17;;;;;;;31.37;20.97;;;6.30;99.90;;;;;;5114980;28;20606;-60
2021/12/27 09:22:43;;;;;;;31.00;21.00;;;6.10;99.90;;;;;;5115466;28;20176;-60
2021/12/27 09:25:09;;;;;;;29.43;20.10;;;5.90;99.90;;;;;;5114929;28;20672;-61
2021/12/27 09:27:36;;;;;;;31.97;20.97;;;5.70;99.90;;;;;;5114805;28;20181;-59
2021/12/27 09:30:03;;;;;;;28.47;19.97;;;5.20;99.90;;;;;;5115024;28;20233;-61
2021/12/27 09:32:29;;;;;;;32.63;20.57;;;5.40;99.90;;;;;;5114675;28;20600;-56
2021/12/27 09:34:54;;;;;;;33.63;21.77;;;5.20;99.90;;;;;;5114852;28;20174;-60
2021/12/27 09:37:20;;;;;;;30.60;21.07;;;5.20;99.90;;;;;;5101736;28;20689;-62
2021/12/27 09:39:53;;;;;;;33.50;22.17;;;5.30;99.90;;;;;;5099551;22;20252;-55
2021/12/27 09:42:23;;;;;;;33.77;22.07;;;5.20;99.90;;;;;;5092612;28;20169;-54
2021/12/27 09:44:49;;;;;;;34.23;21.40;;;5.20;99.90;;;;;;5092978;28;20836;-50
2021/12/27 09:47:15;;;;;;;33.57;21.97;;;5.10;99.90;;;;;;5093670;28;20184;-53
2021/12/27 09:49:41;;;;;;;31.87;20.57;;;5.10;99.90;;;;;;5094079;28;20268;-49
2021/12/27 09:52:07;;;;;;;32.23;21.20;;;5.10;99.90;;;;;;5094323;28;20174;-47
2021/12/27 09:54:33;;;;;;;33.10;21.50;;;5.20;99.90;;;;;;5093240;28;20682;-52
2021/12/27 09:56:59;;;;;;;34.20;21.90;;;5.30;99.90;;;;;;5093706;28;20203;-49
2021/12/27 09:59:24;;;;;;;30.93;20.50;;;5.20;99.90;;;;;;5093197;28;20193;-52
2021/12/27 10:01:52;;;;;;;31.13;20.57;;;5.30;99.90;;;;;;5094052;28;20170;-49
2021/12/27 10:04:19;;;;;;;30.33;20.73;;;5.40;99.90;;;;;;5075039;28;20174;-48
2021/12/27 10:06:45;;;;;;;30.03;19.87;;;6.70;99.90;;;;;;5094386;28;20165;-52
2021/12/27 10:09:11;;;;;;;26.10;18.90;;;9.30;99.90;;;;;;5093869;28;20189;-50
2021/12/27 10:11:39;;;;;;;23.23;18.00;;;12.00;99.90;;;;;;5093416;28;20181;-51
2021/12/27 10:14:07;;;;;;;24.07;18.47;;;15.20;99.20;;;;;;5093644;28;20289;-56
2021/12/27 10:16:37;;;;;;;23.57;18.37;;;17.20;95.70;;;;;;5093611;28;20166;-58
2021/12/27 10:19:06;;;;;;;23.67;19.40;;;19.50;92.30;;;;;;5093811;28;20650;-56
2021/12/27 10:21:33;;;;;;;21.92;18.48;;;21.60;84.40;;;;;;5093579;28;20176;-55
2021/12/27 10:24:02;;;;;;;22.25;17.55;;;23.10;78.40;;;;;;5093225;28;20662;-54
2021/12/27 10:26:30;;;;;;;19.48;16.88;;;23.90;71.50;;;;;;5093274;28;20185;-57
2021/12/27 10:29:28;;;;;;;19.75;16.58;;;24.40;69.20;;;;;;5093599;28;20186;-55
2021/12/27 10:32:10;;;;;;;20.50;16.52;;;25.50;65.90;;;;;;5082227;28;20193;-58
2021/12/27 10:34:43;;;;;;;18.95;16.95;;;26.90;60.50;;;;;;5093125;28;20202;-57
2021/12/27 10:37:14;;;;;;;19.35;17.27;;;27.90;57.80;;;;;;5093152;28;20169;-57
2021/12/27 10:39:52;;;;;;;19.45;16.30;;;28.60;51.40;;;;;;5093234;28;20289;-58
2021/12/27 10:42:20;;;;;;;19.77;17.67;;;28.80;52.00;;;;;;5093113;28;20174;-57
2021/12/27 10:44:47;;;;;;;19.42;17.45;;;29.30;49.10;;;;;;5092763;28;20170;-58
2021/12/27 10:47:36;;;;;;;19.30;17.30;;;29.40;47.90;;;;;;5092133;28;20174;-57
2021/12/27 10:50:07;;;;;;;18.25;16.35;;;29.30;46.90;;;;;;5092050;28;20188;-57
2021/12/27 10:52:46;;;;;;;17.77;15.82;;;29.30;47.30;;;;;;5091341;28;20170;-57
2021/12/27 10:55:13;;;;;;;16.70;14.95;;;29.80;46.80;;;;;;5091434;28;20542;-59
2021/12/27 10:57:39;;;;;;;16.25;14.52;;;30.40;46.00;;;;;;5092629;28;20170;-57
2021/12/27 11:00:28;;;;;;;16.45;14.80;;;31.10;44.70;;;;;;5092485;28;20190;-55
2021/12/27 11:02:55;;;;;;;17.48;15.68;;;31.90;43.80;;;;;;5093045;28;20223;-54
2021/12/27 11:05:23;;;;;;;17.13;15.32;;;32.00;41.10;;;;;;5092321;28;20530;-56
2021/12/27 11:07:53;;;;;;;18.02;16.13;;;31.60;40.00;;;;;;5092817;28;20222;-57
2021/12/27 11:10:20;;;;;;;18.13;16.23;;;29.60;41.00;;;;;;5092633;28;20214;-54
2021/12/27 11:12:49;;;;;;;18.58;16.55;;;28.10;43.30;;;;;;5092662;28;20220;-56
2021/12/27 11:15:15;;;;;;;16.67;14.88;;;27.30;43.50;;;;;;5091898;28;20177;-57
2021/12/27 11:17:41;;;;;;;17.13;14.77;;;27.00;44.00;;;;;;5092526;28;20169;-55
2021/12/27 11:20:10;;;;;;;16.33;14.57;;;27.30;44.70;;;;;;5092039;28;20193;-51
2021/12/27 11:22:38;;;;;;;16.13;14.43;;;28.00;44.00;;;;;;5091458;28;20173;-55
2021/12/27 11:25:06;;;;;;;15.82;14.13;;;28.60;42.40;;;;;;5092149;28;20166;-52
2021/12/27 11:27:35;;;;;;;15.52;13.93;;;27.90;42.10;;;;;;5091636;28;20170;-57
2021/12/27 11:30:12;;;;;;;16.27;14.57;;;27.20;43.30;;;;;;5091841;28;20193;-55
2021/12/27 11:33:01;;;;;;;17.45;14.35;;;27.10;44.00;;;;;;5092007;28;20571;-55
2021/12/27 11:35:38;;;;;;;16.08;14.40;;;27.50;42.50;;;;;;5091341;28;20538;-55
2021/12/27 11:38:04;;;;;;;14.30;12.23;;;26.40;43.50;;;;;;5092139;28;20558;-55
2021/12/27 11:40:41;;;;;;;14.07;12.52;;;25.40;45.00;;;;;;5092061;28;20202;-56
2021/12/27 11:43:07;;;;;;;15.82;14.13;;;25.60;45.70;;;;;;5091916;28;20181;-56
2021/12/27 11:45:43;;;;;;;15.50;13.88;;;25.80;44.60;;;;;;5091974;28;20645;-56
2021/12/27 11:48:14;;;;;;;15.45;13.73;;;26.10;45.20;;;;;;5091885;28;20726;-57
2021/12/27 11:51:03;;;;;;;14.75;12.50;;;27.20;43.90;;;;;;5091866;28;20223;-57
2021/12/27 11:53:29;;;;;;;15.00;11.73;;;27.90;43.30;;;;;;5091257;28;20194;-57
2021/12/27 11:55:56;;;;;;;13.98;12.55;;;28.50;42.50;;;;;;5091365;28;20288;-56
2021/12/27 11:58:37;;;;;;;17.10;15.25;;;29.10;42.50;;;;;;5091751;28;20212;-58
2021/12/27 12:01:30;;;;;;;19.25;17.00;;;29.40;41.60;;;;;;5091341;28;20196;-56
2021/12/27 12:03:58;;;;;;;21.58;19.27;;;28.40;42.10;;;;;;5080490;28;20277;-56
2021/12/27 12:06:44;;;;;;;22.42;20.02;;;26.10;43.60;;;;;;5091177;28;20181;-56
2021/12/27 12:09:19;;;;;;;25.48;21.05;;;24.00;45.80;;;;;;5091783;28;20205;-53
2021/12/27 12:11:59;;;;;;;24.23;21.10;;;21.70;47.50;;;;;;5091471;28;20303;-54
2021/12/27 12:14:35;;;;;;;27.03;22.57;;;19.70;50.00;;;;;;5091398;28;20206;-53
2021/12/27 12:17:05;;;;;;;24.03;19.63;;;17.80;52.50;;;;;;5091367;28;20172;-57
2021/12/27 12:19:36;;;;;;;24.40;20.00;;;16.70;54.90;;;;;;5091869;28;20555;-53
2021/12/27 12:22:02;;;;;;;25.90;20.77;;;15.70;57.00;;;;;;5091378;28;20169;-55
2021/12/27 12:24:28;;;;;;;28.33;20.70;;;14.70;59.40;;;;;;5091422;28;20179;-52
2021/12/27 12:27:01;;;;;;;28.67;21.70;;;13.80;62.20;;;;;;5091435;28;20182;-51
2021/12/27 12:29:38;;;;;;;33.93;24.27;;;12.80;64.70;;;;;;5091471;28;20196;-49
2021/12/27 12:32:06;;;;;;;36.03;24.80;;;12.10;67.90;;;;;;5091738;28;20205;-48
2021/12/27 12:34:32;;;;;;;34.07;24.63;;;11.50;69.70;;;;;;5090939;28;20251;-52
2021/12/27 12:37:04;;;;;;;35.17;25.03;;;10.80;73.50;;;;;;5091689;28;20628;-50
2021/12/27 12:39:38;;;;;;;38.70;24.73;;;9.80;78.40;;;;;;5091214;28;20550;-55
2021/12/27 12:42:08;;;;;;;34.97;23.90;;;9.10;84.30;;;;;;5091614;28;20646;-51